createdAt,value
2023-05-09T00:00:43.429Z,4.13
2023-05-09T00:05:36.157Z,2.40
2023-05-09T00:10:29.263Z,3.90
2023-05-09T00:15:22.359Z,2.30
2023-05-09T00:20:17.079Z,2.70
2023-05-09T00:25:12.872Z,3.20
2023-05-09T00:30:08.621Z,5.82
2023-05-09T00:35:01.768Z,2.47
2023-05-09T00:39:54.330Z,3.33
2023-05-09T00:44:47.696Z,8.15
2023-05-09T00:49:40.560Z,3.22
2023-05-09T00:54:33.824Z,2.67
2023-05-09T00:59:28.193Z,3.63
2023-05-09T01:04:22.408Z,3.03
2023-05-09T01:09:33.636Z,4.60
2023-05-09T01:15:09.342Z,3.45
2023-05-09T01:20:24.039Z,3.90
2023-05-09T01:25:31.504Z,2.47
2023-05-09T01:30:45.894Z,2.60
2023-05-09T01:35:58.082Z,6.78
2023-05-09T01:41:12.049Z,2.38
2023-05-09T01:46:25.889Z,3.55
2023-05-09T01:51:20.715Z,3.95
2023-05-09T01:56:14.654Z,3.67
2023-05-09T02:01:07.838Z,3.63
2023-05-09T02:06:04.324Z,2.90
2023-05-09T02:10:57.460Z,4.05
2023-05-09T02:15:51.093Z,3.20
2023-05-09T02:20:45.068Z,2.85
2023-05-09T02:25:40.107Z,2.80
2023-05-09T02:30:37.782Z,2.10
2023-05-09T02:35:30.570Z,4.05
2023-05-09T02:40:25.033Z,4.60
2023-05-09T02:45:18.063Z,2.70
2023-05-09T02:50:11.132Z,4.10
2023-05-09T02:55:04.901Z,2.70
2023-05-09T03:00:02.422Z,2.90
2023-05-09T03:04:56.062Z,2.50
2023-05-09T03:09:49.731Z,3.53
2023-05-09T03:14:42.149Z,4.22
2023-05-09T03:19:35.382Z,2.42
2023-05-09T03:24:31.161Z,2.60
2023-05-09T03:29:24.592Z,3.17
2023-05-09T03:34:18.331Z,3.83
2023-05-09T03:39:11.848Z,3.95
2023-05-09T03:44:10.675Z,4.00
2023-05-09T03:49:05.898Z,3.80
2023-05-09T03:54:00.740Z,5.30
2023-05-09T03:58:54.828Z,5.00
2023-05-09T04:03:48.844Z,3.67
2023-05-09T04:08:42.214Z,3.80
2023-05-09T04:13:35.283Z,3.40
2023-05-09T04:18:33.520Z,2.90
2023-05-09T04:23:26.157Z,3.00
2023-05-09T04:28:22.262Z,4.95
2023-05-09T04:33:15.545Z,4.45
2023-05-09T04:38:09.025Z,3.25
2023-05-09T04:43:02.309Z,4.43
2023-05-09T04:47:56.669Z,3.45
2023-05-09T04:52:49.710Z,3.67
2023-05-09T04:57:42.914Z,2.97
2023-05-09T05:02:35.982Z,4.95
2023-05-09T05:07:29.501Z,3.35
2023-05-09T05:12:22.564Z,3.13
2023-05-09T05:17:17.747Z,4.50
2023-05-09T05:22:12.319Z,5.75
2023-05-09T05:27:07.779Z,8.50
2023-05-09T05:32:01.407Z,11.38
2023-05-09T05:36:54.101Z,22.92
2023-05-09T05:41:48.065Z,21.27
2023-05-09T05:46:42.836Z,22.02
2023-05-09T05:51:47.188Z,17.45
2023-05-09T05:56:40.438Z,20.92
2023-05-09T06:01:34.394Z,18.38
2023-05-09T06:06:29.726Z,14.40
2023-05-09T06:11:23.763Z,15.80
2023-05-09T06:16:19.845Z,9.57
2023-05-09T06:21:15.526Z,9.25
2023-05-09T06:26:09.087Z,9.85
2023-05-09T06:31:02.185Z,13.00
2023-05-09T06:35:55.641Z,12.60
2023-05-09T06:40:49.560Z,9.25
2023-05-09T06:45:44.541Z,12.57
2023-05-09T06:50:41.407Z,6.53
2023-05-09T06:55:34.725Z,10.63
2023-05-09T07:00:28.288Z,7.43
2023-05-09T07:05:21.932Z,10.35
2023-05-09T07:10:15.878Z,6.32
2023-05-09T07:15:12.068Z,7.47
2023-05-09T07:20:07.613Z,9.27
2023-05-09T07:25:01.518Z,7.15
2023-05-09T07:29:55.076Z,5.80
2023-05-09T07:34:48.661Z,7.20
2023-05-09T07:39:42.250Z,13.10
2023-05-09T07:44:35.709Z,8.48
2023-05-09T07:49:29.138Z,7.65
2023-05-09T07:54:22.618Z,6.93
2023-05-09T07:59:15.651Z,9.52
2023-05-09T08:04:09.584Z,7.18
2023-05-09T08:09:03.033Z,10.13
2023-05-09T08:13:55.695Z,8.70
2023-05-09T08:18:48.377Z,10.45
2023-05-09T08:23:41.279Z,7.30
2023-05-09T08:28:34.547Z,13.68
2023-05-09T08:33:27.124Z,13.52
2023-05-09T08:38:21.711Z,7.32
2023-05-09T08:43:18.422Z,11.55
2023-05-09T08:48:13.289Z,9.02
2023-05-09T08:53:06.524Z,10.50
2023-05-09T08:58:00.179Z,8.45
2023-05-09T09:02:54.481Z,8.10
2023-05-09T09:07:47.969Z,12.27
2023-05-09T09:12:41.847Z,16.38
2023-05-09T09:17:41.847Z,13.65
2023-05-09T09:22:39.748Z,12.27
2023-05-09T09:27:33.015Z,14.88
2023-05-09T09:32:34.555Z,13.00
2023-05-09T09:37:28.236Z,10.40
2023-05-09T09:42:22.442Z,12.93
2023-05-09T09:47:15.595Z,11.48
2023-05-09T09:52:09.147Z,10.73
2023-05-09T09:57:02.386Z,10.88
2023-05-09T10:01:59.142Z,13.23
2023-05-09T10:07:14.644Z,11.00
2023-05-09T10:12:09.165Z,6.82
2023-05-09T10:17:03.812Z,7.93
2023-05-09T10:21:59.884Z,7.10
2023-05-09T10:26:57.367Z,6.28
2023-05-09T10:31:55.042Z,11.55
2023-05-09T10:36:49.472Z,8.98
2023-05-09T10:41:43.335Z,5.85
2023-05-09T10:46:37.318Z,6.75
2023-05-09T10:51:31.396Z,4.85
2023-05-09T10:56:34.388Z,5.30
2023-05-09T11:01:39.741Z,6.95
2023-05-09T11:06:55.712Z,4.47
2023-05-09T11:11:53.005Z,5.07
2023-05-09T11:17:25.267Z,5.00
2023-05-09T11:22:33.085Z,5.32
2023-05-09T11:27:28.918Z,4.75
2023-05-09T11:32:23.020Z,5.32
2023-05-09T11:37:23.895Z,8.50
2023-05-09T11:42:18.865Z,5.30
2023-05-09T11:47:12.402Z,4.90
2023-05-09T11:52:13.568Z,4.40
2023-05-09T11:57:08.108Z,8.00
2023-05-09T12:02:04.863Z,6.65
2023-05-09T12:06:59.398Z,7.82
2023-05-09T12:11:52.737Z,13.00
2023-05-09T12:16:49.283Z,9.82
2023-05-09T12:21:42.894Z,19.75
2023-05-09T12:26:36.398Z,14.32
2023-05-09T12:31:29.779Z,12.45
2023-05-09T12:36:25.034Z,8.93
2023-05-09T12:41:34.928Z,9.60
2023-05-09T12:46:31.615Z,10.35
2023-05-09T12:51:24.556Z,11.90
2023-05-09T12:56:19.490Z,9.60
2023-05-09T13:01:14.701Z,8.63
2023-05-09T13:06:13.972Z,8.80
2023-05-09T13:11:16.127Z,10.67
2023-05-09T13:16:12.016Z,6.82
2023-05-09T13:21:06.070Z,9.27
2023-05-09T13:25:59.564Z,8.23
2023-05-09T13:30:52.671Z,8.65
2023-05-09T13:35:48.487Z,8.57
2023-05-09T13:40:42.232Z,7.35
2023-05-09T13:45:34.842Z,8.73
2023-05-09T13:50:27.958Z,5.18
2023-05-09T13:55:22.309Z,13.45
2023-05-09T14:00:18.365Z,7.65
2023-05-09T14:05:12.101Z,9.63
2023-05-09T14:10:11.366Z,9.25
2023-05-09T14:15:07.822Z,11.27
2023-05-09T14:19:59.957Z,9.93
2023-05-09T14:24:54.525Z,10.90
2023-05-09T14:29:49.389Z,11.80
2023-05-09T14:34:42.853Z,10.48
2023-05-09T14:39:36.990Z,9.35
2023-05-09T14:44:30.133Z,12.93
2023-05-09T14:49:23.588Z,12.63
2023-05-09T14:54:16.224Z,7.30
2023-05-09T14:59:09.598Z,7.30
2023-05-09T15:04:03.198Z,7.47
2023-05-09T15:08:56.375Z,9.18
2023-05-09T15:13:49.677Z,8.27
2023-05-09T15:18:45.933Z,7.70
2023-05-09T15:23:42.333Z,14.90
2023-05-09T15:28:36.296Z,9.07
2023-05-09T15:33:29.642Z,23.60
2023-05-09T15:38:23.449Z,29.77
2023-05-09T15:43:16.936Z,19.70
2023-05-09T15:48:11.585Z,11.27
2023-05-09T15:53:04.964Z,13.00
2023-05-09T15:57:58.882Z,11.73
2023-05-09T16:02:52.187Z,16.50
2023-05-09T16:07:51.001Z,9.23
2023-05-09T16:12:44.813Z,8.65
2023-05-09T16:17:38.433Z,12.07
2023-05-09T16:22:31.959Z,10.00
2023-05-09T16:27:25.009Z,10.00
2023-05-09T16:32:18.497Z,10.85
2023-05-09T16:37:11.530Z,10.45
2023-05-09T16:42:04.465Z,7.63
2023-05-09T16:46:57.885Z,7.63
2023-05-09T16:51:51.760Z,7.75
2023-05-09T16:56:44.951Z,8.18
2023-05-09T17:01:38.286Z,10.23
2023-05-09T17:06:31.753Z,6.25
2023-05-09T17:11:25.207Z,8.98
2023-05-09T17:16:18.368Z,7.28
2023-05-09T17:21:10.885Z,6.93
2023-05-09T17:26:04.365Z,5.72
2023-05-09T17:31:02.389Z,6.25
2023-05-09T17:35:56.120Z,5.70
2023-05-09T17:40:53.474Z,5.50
2023-05-09T17:45:46.896Z,7.90
2023-05-09T17:50:40.757Z,3.90
2023-05-09T17:55:33.326Z,6.35
2023-05-09T18:00:27.432Z,8.80
2023-05-09T18:05:21.148Z,4.35
2023-05-09T18:10:15.240Z,7.00
2023-05-09T18:15:11.150Z,4.60
2023-05-09T18:20:06.594Z,8.77
2023-05-09T18:24:59.708Z,5.35
2023-05-09T18:29:53.171Z,6.28
2023-05-09T18:34:45.733Z,6.90
2023-05-09T18:39:42.220Z,8.30
2023-05-09T18:44:36.996Z,11.15
2023-05-09T18:49:30.489Z,16.88
2023-05-09T18:54:25.296Z,9.75
2023-05-09T18:59:18.360Z,11.82
2023-05-09T19:04:11.519Z,3.08
2023-05-09T19:09:04.901Z,4.78
2023-05-09T19:13:58.067Z,5.80
2023-05-09T19:18:51.867Z,10.35
2023-05-09T19:23:48.216Z,5.95
2023-05-09T19:28:40.843Z,4.30
2023-05-09T19:33:34.687Z,3.22
2023-05-09T19:38:28.377Z,4.35
2023-05-09T19:43:22.585Z,5.80
2023-05-09T19:48:16.383Z,8.18
2023-05-09T19:53:09.801Z,4.95
2023-05-09T19:58:03.449Z,9.20
2023-05-09T20:03:00.197Z,5.75
2023-05-09T20:07:53.584Z,9.88
2023-05-09T20:12:51.572Z,2.70
2023-05-09T20:17:45.226Z,9.43
2023-05-09T20:22:38.932Z,3.97
2023-05-09T20:27:32.821Z,5.90
2023-05-09T20:32:26.190Z,6.35
2023-05-09T20:37:19.153Z,17.25
2023-05-09T20:42:12.467Z,3.85
2023-05-09T20:47:06.477Z,10.10
2023-05-09T20:52:00.449Z,5.90
2023-05-09T20:56:53.791Z,5.85
2023-05-09T21:01:47.012Z,7.95
2023-05-09T21:06:40.862Z,5.10
2023-05-09T21:11:35.736Z,7.20
2023-05-09T21:16:29.726Z,10.25
2023-05-09T21:21:23.561Z,5.70
2023-05-09T21:26:17.117Z,5.60
2023-05-09T21:31:11.637Z,8.73
2023-05-09T21:36:03.934Z,4.65
2023-05-09T21:41:01.427Z,6.43
2023-05-09T21:45:56.073Z,6.80
2023-05-09T21:50:48.632Z,5.82
2023-05-09T21:55:42.022Z,2.78
2023-05-09T22:00:35.444Z,3.88
2023-05-09T22:05:28.608Z,5.72
2023-05-09T22:10:21.697Z,5.00
2023-05-09T22:15:14.366Z,2.45
2023-05-09T22:20:07.596Z,2.65
2023-05-09T22:25:00.833Z,2.10
2023-05-09T22:29:53.796Z,3.33
2023-05-09T22:34:48.528Z,7.00
2023-05-09T22:39:42.048Z,2.70
2023-05-09T22:44:35.746Z,2.30
2023-05-09T22:49:28.782Z,2.22
2023-05-09T22:54:24.025Z,2.33
2023-05-09T22:59:16.554Z,2.60
2023-05-09T23:04:11.011Z,2.42
2023-05-09T23:09:05.057Z,3.22
2023-05-09T23:13:58.763Z,4.88
2023-05-09T23:18:52.674Z,1.98
2023-05-09T23:23:45.702Z,5.82
2023-05-09T23:28:37.863Z,2.35
2023-05-09T23:33:31.515Z,2.70
2023-05-09T23:38:24.038Z,2.80
2023-05-09T23:43:18.582Z,2.03
2023-05-09T23:48:12.470Z,2.72
2023-05-09T23:53:07.525Z,2.50
2023-05-09T23:58:02.892Z,2.60
